Friday, August 26, 2016
10:16 UTC
  |  Log In   |  Register Free
Airport Search:

Southwest Georgia Regional Airport
(KABY)

FAA data valid effective Jul 21 2016 - Sep 15 2016 (unless otherwise noted).

 
 
 
 
 
 
 
 
 
 
 
 
 
 
Current Aviation Weather for KABY

Weather Summary


The most recent METAR observation for ABY was updated at: 12:53 UTC
METAR for ABY is not available. Closest METAR is for
METAR

METAR KABY 260953Z 00000KT 10SM CLR 21/19 A3008 RMK AO2 SLP184 T02110194

METAR KABY 260853Z 33003KT 10SM CLR 21/19 A3009 RMK AO2 SLP186 T02110194 58008

METAR KABY 260753Z 00000KT 10SM CLR 23/19 A3010 RMK AO2 SLP190 T02280194

METAR KACJ 260955Z 00000KT 10SM CLR 20/20 A3010 RMK AO2

METAR KCKF 260955Z 00000KT 10SM SCT060 21/20 A3010 RMK AO2 T02110201

METAR KCXU METAR not available

TAF for ABY is not available.
TAF

KABY - TAF KABY 260535Z 2606/2706 00000KT P6SM SKC

KABY - FM261500 09010KT P6SM SCT250 =

GlobalAir.com is loading additional information.
 Current Weather at ABY
70.0 F° (21.1 C°)

Northwest winds at 3.5 mph
Pressure:
30.09 in
Humidity:
90%
Wind:
Northwest at 3.5 mph
Dew Point:
66.9 F° (19.4 C°)
Visibility:
10.00 mi
ABY NOAA Radar




Find All Airport Services Find A Hotel Find A Rental Car Find A Golf Course Find A Restaurant $100 Hamburger



Airport Weather Forecast for KABY

Translated METAR for KABY (0953 UTC)
METAR:
KABY 260953Z AUTO Southwest Georgia Regional, Albany, GA (KABY). Aug 26, 0953Z, Automated. Wind is Calm, 10 statute miles visibility, Clear Skies, Temperature 21°C, Dewpoint 19°C, Altimeter is 30.08. Remarks: automated station with precipitation discriminator sea level pressure 1018.4 hectopascals hourly temp 21.1°C dewpoint 19.4°C
Conditions at:
KABY (Southwest Georgia Rgnl, GA) observed 0953 UTC 26 August 2016
Temperature:
70.0 F° (21.1 C°)
Dewpoint:
not reported - refer to area weather report
Pressure:
30.09 Hg
Winds:
not reported
Visibility:
10.00
Ceiling:
at least 12,000 feet AGL
Clouds:
not reported - refer to area weather report
Remarks:
site is un-manned

Translated TAF for TAF for ABY is not available. Refer to local area forecast.
FBO's on the Field
FBO Company Facility Photos Services Transportation Aviation Fuel Prices: Prices include tax
Catering Weather Repair Courtesy Rental Type 100LL JetA JetA+ MOGAS 8087
 
Eagles of America, Inc. - ABY

Currently rated 5 by 1 person
FS:Epic
Last Updated: Aug-19
Login to update fuel prices
SS:
Contact Eagles of America, Inc. - ABYMore FBO Information
 
Add another FBO Facility Photos Catering Weather Repair Courtesy Rental Type 100LL JetA JetA+ MOGAS 8087
Services Transportation Aviation Fuel Prices: Prices include tax


model-print
model-print
model-print
model-print